sensor_id;sensor_type;location;lat;lon;timestamp;pressure;altitude;pressure_sealevel;temperature;humidity
12676;BME280;63820;65.654;21.944;2022-10-13T00:00:54;100883.06;;;1.55;100.00
12676;BME280;63820;65.654;21.944;2022-10-13T00:03:39;100878.78;;;1.67;100.00
12676;BME280;63820;65.654;21.944;2022-10-13T00:06:25;100871.94;;;1.82;100.00
12676;BME280;63820;65.654;21.944;2022-10-13T00:09:09;100873.56;;;2.14;100.00
12676;BME280;63820;65.654;21.944;2022-10-13T00:11:56;100870.16;;;2.09;100.00
12676;BME280;63820;65.654;21.944;2022-10-13T00:14:41;100874.44;;;2.08;100.00
12676;BME280;63820;65.654;21.944;2022-10-13T00:17:25;100878.63;;;2.38;100.00
12676;BME280;63820;65.654;21.944;2022-10-13T00:20:10;100889.72;;;2.45;100.00
12676;BME280;63820;65.654;21.944;2022-10-13T00:22:54;100893.06;;;2.68;100.00
12676;BME280;63820;65.654;21.944;2022-10-13T00:25:46;100885.41;;;2.57;100.00
12676;BME280;63820;65.654;21.944;2022-10-13T00:28:31;100888.88;;;2.44;100.00
12676;BME280;63820;65.654;21.944;2022-10-13T00:31:20;100885.50;;;2.33;100.00
12676;BME280;63820;65.654;21.944;2022-10-13T00:34:04;100890.50;;;2.67;100.00
12676;BME280;63820;65.654;21.944;2022-10-13T00:36:48;100895.59;;;2.79;100.00
12676;BME280;63820;65.654;21.944;2022-10-13T00:39:32;100893.09;;;2.62;100.00
12676;BME280;63820;65.654;21.944;2022-10-13T00:42:16;100893.09;;;2.57;100.00
12676;BME280;63820;65.654;21.944;2022-10-13T00:45:06;100879.50;;;2.31;100.00
12676;BME280;63820;65.654;21.944;2022-10-13T00:47:58;100879.47;;;2.37;100.00
12676;BME280;63820;65.654;21.944;2022-10-13T00:50:44;100870.13;;;2.21;100.00
12676;BME280;63820;65.654;21.944;2022-10-13T00:53:31;100867.53;;;2.22;100.00
12676;BME280;63820;65.654;21.944;2022-10-13T00:56:18;100859.00;;;2.14;100.00
12676;BME280;63820;65.654;21.944;2022-10-13T00:59:07;100855.59;;;2.12;100.00
12676;BME280;63820;65.654;21.944;2022-10-13T01:01:52;100848.69;;;2.29;100.00
12676;BME280;63820;65.654;21.944;2022-10-13T01:04:39;100843.56;;;2.33;100.00
12676;BME280;63820;65.654;21.944;2022-10-13T01:07:25;100847.81;;;2.35;100.00
12676;BME280;63820;65.654;21.944;2022-10-13T01:10:09;100840.09;;;2.40;100.00
12676;BME280;63820;65.654;21.944;2022-10-13T01:31:26;100838.38;;;2.42;100.00
12676;BME280;63820;65.654;21.944;2022-10-13T01:34:27;100828.97;;;2.42;100.00
12676;BME280;63820;65.654;21.944;2022-10-13T01:37:28;100824.66;;;2.50;100.00
12676;BME280;63820;65.654;21.944;2022-10-13T01:43:11;100816.69;;;2.99;100.00
12676;BME280;63820;65.654;21.944;2022-10-13T01:46:19;100816.63;;;3.05;100.00
12676;BME280;63820;65.654;21.944;2022-10-13T01:49:09;100813.97;;;3.14;100.00
12676;BME280;63820;65.654;21.944;2022-10-13T01:51:56;100816.50;;;3.17;100.00
12676;BME280;63820;65.654;21.944;2022-10-13T01:54:47;100813.88;;;3.25;100.00
12676;BME280;63820;65.654;21.944;2022-10-13T01:57:35;100812.78;;;3.55;100.00
12676;BME280;63820;65.654;21.944;2022-10-13T02:00:21;100807.50;;;3.67;100.00
12676;BME280;63820;65.654;21.944;2022-10-13T02:09:47;100808.16;;;3.89;100.00
12676;BME280;63820;65.654;21.944;2022-10-13T02:12:39;100800.44;;;3.87;100.00
12676;BME280;63820;65.654;21.944;2022-10-13T02:15:36;100803.94;;;3.80;100.00
12676;BME280;63820;65.654;21.944;2022-10-13T02:18:30;100793.69;;;3.77;100.00
12676;BME280;63820;65.654;21.944;2022-10-13T02:21:16;100790.31;;;3.72;100.00
12676;BME280;63820;65.654;21.944;2022-10-13T02:24:02;100792.06;;;3.67;100.00
12676;BME280;63820;65.654;21.944;2022-10-13T02:26:46;100789.56;;;3.59;100.00
12676;BME280;63820;65.654;21.944;2022-10-13T02:29:30;100789.59;;;3.58;100.00
12676;BME280;63820;65.654;21.944;2022-10-13T02:32:15;100793.91;;;3.56;100.00
12676;BME280;63820;65.654;21.944;2022-10-13T02:34:59;100784.53;;;3.50;100.00
12676;BME280;63820;65.654;21.944;2022-10-13T02:37:44;100792.28;;;3.46;100.00
12676;BME280;63820;65.654;21.944;2022-10-13T02:40:28;100786.38;;;3.33;100.00
12676;BME280;63820;65.654;21.944;2022-10-13T02:43:13;100786.31;;;3.41;100.00
12676;BME280;63820;65.654;21.944;2022-10-13T02:45:57;100785.22;;;3.66;100.00
12676;BME280;63820;65.654;21.944;2022-10-13T02:48:41;100794.44;;;3.88;100.00
12676;BME280;63820;65.654;21.944;2022-10-13T02:51:25;100779.84;;;3.87;100.00
12676;BME280;63820;65.654;21.944;2022-10-13T02:54:09;100788.38;;;3.94;100.00
12676;BME280;63820;65.654;21.944;2022-10-13T02:56:53;100779.78;;;3.93;100.00
12676;BME280;63820;65.654;21.944;2022-10-13T02:59:37;100773.78;;;3.93;100.00
12676;BME280;63820;65.654;21.944;2022-10-13T03:02:21;100772.06;;;3.93;100.00
12676;BME280;63820;65.654;21.944;2022-10-13T03:05:05;100769.50;;;3.93;100.00
12676;BME280;63820;65.654;21.944;2022-10-13T03:07:50;100778.81;;;4.04;100.00
12676;BME280;63820;65.654;21.944;2022-10-13T03:10:34;100779.59;;;4.12;100.00
12676;BME280;63820;65.654;21.944;2022-10-13T03:13:18;100764.28;;;4.00;100.00
12676;BME280;63820;65.654;21.944;2022-10-13T03:16:03;100766.75;;;4.07;100.00
12676;BME280;63820;65.654;21.944;2022-10-13T03:18:46;100766.81;;;4.03;100.00
12676;BME280;63820;65.654;21.944;2022-10-13T03:21:30;100760.72;;;4.10;100.00
12676;BME280;63820;65.654;21.944;2022-10-13T03:24:14;100742.66;;;4.14;100.00
12676;BME280;63820;65.654;21.944;2022-10-13T03:26:58;100744.38;;;4.12;100.00
12676;BME280;63820;65.654;21.944;2022-10-13T03:29:43;100751.25;;;4.12;100.00
12676;BME280;63820;65.654;21.944;2022-10-13T03:32:29;100754.66;;;4.15;100.00
12676;BME280;63820;65.654;21.944;2022-10-13T03:35:13;100753.94;;;4.04;100.00
12676;BME280;63820;65.654;21.944;2022-10-13T03:37:58;100754.03;;;3.97;100.00
12676;BME280;63820;65.654;21.944;2022-10-13T03:40:42;100752.31;;;3.96;100.00
12676;BME280;63820;65.654;21.944;2022-10-13T03:43:26;100740.34;;;3.91;100.00
12676;BME280;63820;65.654;21.944;2022-10-13T03:46:15;100745.50;;;3.91;100.00
12676;BME280;63820;65.654;21.944;2022-10-13T03:49:00;100746.19;;;4.04;100.00
12676;BME280;63820;65.654;21.944;2022-10-13T03:51:44;100746.97;;;4.12;100.00
12676;BME280;63820;65.654;21.944;2022-10-13T03:54:29;100747.81;;;4.13;100.00
12676;BME280;63820;65.654;21.944;2022-10-13T03:57:13;100754.59;;;4.17;100.00
12676;BME280;63820;65.654;21.944;2022-10-13T03:59:57;100749.53;;;4.14;100.00
12676;BME280;63820;65.654;21.944;2022-10-13T04:02:41;100746.84;;;4.20;100.00
12676;BME280;63820;65.654;21.944;2022-10-13T04:05:25;100744.09;;;4.32;100.00
12676;BME280;63820;65.654;21.944;2022-10-13T04:08:10;100749.28;;;4.29;100.00
12676;BME280;63820;65.654;21.944;2022-10-13T04:11:04;100742.38;;;4.33;100.00
12676;BME280;63820;65.654;21.944;2022-10-13T04:13:48;100733.28;;;4.09;100.00
12676;BME280;63820;65.654;21.944;2022-10-13T04:16:33;100734.16;;;4.06;100.00
12676;BME280;63820;65.654;21.944;2022-10-13T04:19:17;100740.16;;;4.07;100.00
12676;BME280;63820;65.654;21.944;2022-10-13T04:22:00;100736.06;;;3.92;100.00
12676;BME280;63820;65.654;21.944;2022-10-13T04:24:44;100734.53;;;3.74;100.00
12676;BME280;63820;65.654;21.944;2022-10-13T04:27:29;100731.28;;;3.58;100.00
12676;BME280;63820;65.654;21.944;2022-10-13T04:30:13;100729.53;;;3.62;100.00
12676;BME280;63820;65.654;21.944;2022-10-13T04:32:58;100724.38;;;3.62;100.00
12676;BME280;63820;65.654;21.944;2022-10-13T04:35:41;100726.91;;;3.65;100.00
12676;BME280;63820;65.654;21.944;2022-10-13T04:38:25;100722.63;;;3.66;100.00
12676;BME280;63820;65.654;21.944;2022-10-13T04:41:10;100714.94;;;3.64;100.00
12676;BME280;63820;65.654;21.944;2022-10-13T04:43:54;100720.88;;;3.68;100.00
12676;BME280;63820;65.654;21.944;2022-10-13T04:46:39;100721.84;;;3.57;100.00
12676;BME280;63820;65.654;21.944;2022-10-13T04:49:23;100705.63;;;3.52;100.00
12676;BME280;63820;65.654;21.944;2022-10-13T04:52:08;100701.09;;;3.74;100.00
12676;BME280;63820;65.654;21.944;2022-10-13T04:54:51;100701.94;;;3.76;100.00
12676;BME280;63820;65.654;21.944;2022-10-13T04:57:36;100702.78;;;3.75;100.00
12676;BME280;63820;65.654;21.944;2022-10-13T05:00:20;100700.22;;;3.77;100.00
12676;BME280;63820;65.654;21.944;2022-10-13T05:03:04;100698.25;;;3.97;100.00
12676;BME280;63820;65.654;21.944;2022-10-13T05:05:49;100696.34;;;4.10;100.00
12676;BME280;63820;65.654;21.944;2022-10-13T05:08:33;100682.59;;;4.12;100.00
12676;BME280;63820;65.654;21.944;2022-10-13T05:11:17;100677.19;;;4.27;100.00
12676;BME280;63820;65.654;21.944;2022-10-13T05:14:03;100678.75;;;4.39;100.00
12676;BME280;63820;65.654;21.944;2022-10-13T05:16:47;100671.13;;;4.33;100.00
12676;BME280;63820;65.654;21.944;2022-10-13T05:19:31;100669.78;;;4.65;100.00
12676;BME280;63820;65.654;21.944;2022-10-13T05:22:16;100665.63;;;4.56;100.00
12676;BME280;63820;65.654;21.944;2022-10-13T05:25:00;100655.44;;;4.48;100.00
12676;BME280;63820;65.654;21.944;2022-10-13T05:27:45;100661.50;;;4.44;100.00
12676;BME280;63820;65.654;21.944;2022-10-13T05:30:29;100651.22;;;4.43;100.00
12676;BME280;63820;65.654;21.944;2022-10-13T05:33:13;100652.94;;;4.44;100.00
12676;BME280;63820;65.654;21.944;2022-10-13T05:36:05;100646.91;;;4.43;100.00
12676;BME280;63820;65.654;21.944;2022-10-13T05:38:52;100646.13;;;4.40;100.00
12676;BME280;63820;65.654;21.944;2022-10-13T05:41:36;100643.03;;;4.72;100.00
12676;BME280;63820;65.654;21.944;2022-10-13T05:44:22;100642.88;;;4.81;100.00
12676;BME280;63820;65.654;21.944;2022-10-13T05:47:07;100647.09;;;4.85;100.00
12676;BME280;63820;65.654;21.944;2022-10-13T05:49:51;100642.66;;;4.93;100.00
12676;BME280;63820;65.654;21.944;2022-10-13T05:52:35;100651.88;;;5.08;100.00
12676;BME280;63820;65.654;21.944;2022-10-13T05:55:20;100647.25;;;5.23;100.00
12676;BME280;63820;65.654;21.944;2022-10-13T05:58:04;100643.06;;;5.19;100.00
12676;BME280;63820;65.654;21.944;2022-10-13T06:00:49;100651.53;;;5.24;100.00
12676;BME280;63820;65.654;21.944;2022-10-13T06:03:34;100646.25;;;5.31;100.00
12676;BME280;63820;65.654;21.944;2022-10-13T06:06:19;100641.97;;;5.30;100.00
12676;BME280;63820;65.654;21.944;2022-10-13T06:09:04;100633.97;;;5.43;100.00
12676;BME280;63820;65.654;21.944;2022-10-13T06:11:49;100630.44;;;5.47;100.00
12676;BME280;63820;65.654;21.944;2022-10-13T06:14:33;100636.16;;;5.63;100.00
12676;BME280;63820;65.654;21.944;2022-10-13T06:17:18;100621.25;;;5.76;100.00
12676;BME280;63820;65.654;21.944;2022-10-13T06:20:01;100620.22;;;5.84;100.00
12676;BME280;63820;65.654;21.944;2022-10-13T06:22:48;100620.28;;;5.81;100.00
12676;BME280;63820;65.654;21.944;2022-10-13T06:25:33;100625.44;;;5.81;100.00
12676;BME280;63820;65.654;21.944;2022-10-13T06:28:19;100620.16;;;5.89;100.00
12676;BME280;63820;65.654;21.944;2022-10-13T06:31:05;100621.72;;;5.96;100.00
12676;BME280;63820;65.654;21.944;2022-10-13T06:33:49;100626.78;;;6.01;100.00
12676;BME280;63820;65.654;21.944;2022-10-13T06:36:33;100617.16;;;6.07;100.00
12676;BME280;63820;65.654;21.944;2022-10-13T06:39:17;100614.09;;;6.27;100.00
12676;BME280;63820;65.654;21.944;2022-10-13T06:42:01;100613.88;;;6.36;100.00
12676;BME280;63820;65.654;21.944;2022-10-13T06:44:45;100612.78;;;6.46;100.00
12676;BME280;63820;65.654;21.944;2022-10-13T06:47:29;100614.22;;;6.58;100.00
12676;BME280;63820;65.654;21.944;2022-10-13T06:50:12;100607.09;;;6.68;100.00
12676;BME280;63820;65.654;21.944;2022-10-13T06:52:57;100596.66;;;6.71;100.00
12676;BME280;63820;65.654;21.944;2022-10-13T06:55:41;100606.63;;;6.86;100.00
12676;BME280;63820;65.654;21.944;2022-10-13T06:58:26;100603.06;;;6.90;100.00
12676;BME280;63820;65.654;21.944;2022-10-13T07:01:12;100593.28;;;7.01;100.00
12676;BME280;63820;65.654;21.944;2022-10-13T07:03:56;100590.66;;;7.03;100.00
12676;BME280;63820;65.654;21.944;2022-10-13T07:06:40;100590.78;;;6.98;100.00
12676;BME280;63820;65.654;21.944;2022-10-13T07:09:25;100596.63;;;7.05;100.00
12676;BME280;63820;65.654;21.944;2022-10-13T07:12:09;100599.91;;;7.11;100.00
12676;BME280;63820;65.654;21.944;2022-10-13T07:14:54;100599.91;;;7.11;100.00
12676;BME280;63820;65.654;21.944;2022-10-13T07:17:37;100587.94;;;7.07;100.00
12676;BME280;63820;65.654;21.944;2022-10-13T07:20:23;100597.31;;;7.11;100.00
12676;BME280;63820;65.654;21.944;2022-10-13T07:23:06;100589.50;;;7.13;100.00
12676;BME280;63820;65.654;21.944;2022-10-13T07:25:51;100584.31;;;7.14;100.00
12676;BME280;63820;65.654;21.944;2022-10-13T07:28:36;100581.63;;;7.17;100.00
12676;BME280;63820;65.654;21.944;2022-10-13T07:31:20;100582.44;;;7.19;100.00
12676;BME280;63820;65.654;21.944;2022-10-13T07:34:05;100573.88;;;7.17;100.00
12676;BME280;63820;65.654;21.944;2022-10-13T07:36:49;100568.66;;;7.19;100.00
12676;BME280;63820;65.654;21.944;2022-10-13T07:39:33;100588.47;;;7.20;100.00
12676;BME280;63820;65.654;21.944;2022-10-13T07:42:17;100573.75;;;7.22;100.00
12676;BME280;63820;65.654;21.944;2022-10-13T07:45:02;100573.78;;;7.20;100.00
12676;BME280;63820;65.654;21.944;2022-10-13T07:47:46;100572.00;;;7.22;100.00
12676;BME280;63820;65.654;21.944;2022-10-13T07:50:30;100575.41;;;7.25;100.00
12676;BME280;63820;65.654;21.944;2022-10-13T07:53:15;100575.44;;;7.23;100.00
12676;BME280;63820;65.654;21.944;2022-10-13T07:56:00;100576.31;;;7.22;100.00
12676;BME280;63820;65.654;21.944;2022-10-13T07:58:45;100573.81;;;7.19;100.00
12676;BME280;63820;65.654;21.944;2022-10-13T08:01:30;100577.31;;;7.18;100.00
12676;BME280;63820;65.654;21.944;2022-10-13T08:04:14;100574.69;;;7.19;100.00
12676;BME280;63820;65.654;21.944;2022-10-13T08:06:58;100567.75;;;7.20;100.00
12676;BME280;63820;65.654;21.944;2022-10-13T08:09:43;100571.25;;;7.19;100.00
12676;BME280;63820;65.654;21.944;2022-10-13T08:12:27;100561.34;;;7.32;100.00
12676;BME280;63820;65.654;21.944;2022-10-13T08:15:11;100570.38;;;7.48;100.00
12676;BME280;63820;65.654;21.944;2022-10-13T08:17:55;100570.75;;;7.65;100.00
12676;BME280;63820;65.654;21.944;2022-10-13T08:20:43;100580.72;;;7.77;100.00
12676;BME280;63820;65.654;21.944;2022-10-13T08:23:28;100575.13;;;7.91;100.00
12676;BME280;63820;65.654;21.944;2022-10-13T08:26:25;100569.81;;;7.96;100.00
12676;BME280;63820;65.654;21.944;2022-10-13T08:29:11;100565.38;;;7.99;100.00
12676;BME280;63820;65.654;21.944;2022-10-13T08:31:56;100561.19;;;7.95;100.00
12676;BME280;63820;65.654;21.944;2022-10-13T08:34:40;100560.44;;;7.92;100.00
12676;BME280;63820;65.654;21.944;2022-10-13T08:37:24;100551.69;;;7.96;100.00
12676;BME280;63820;65.654;21.944;2022-10-13T08:40:13;100555.81;;;8.01;100.00
12676;BME280;63820;65.654;21.944;2022-10-13T08:42:58;100548.91;;;8.02;100.00
12676;BME280;63820;65.654;21.944;2022-10-13T08:45:43;100552.38;;;8.01;100.00
12676;BME280;63820;65.654;21.944;2022-10-13T08:48:31;100551.19;;;8.11;100.00
12676;BME280;63820;65.654;21.944;2022-10-13T08:51:16;100553.66;;;8.15;100.00
12676;BME280;63820;65.654;21.944;2022-10-13T08:54:03;100551.28;;;8.08;100.00
12676;BME280;63820;65.654;21.944;2022-10-13T08:56:48;100555.78;;;8.03;100.00
12676;BME280;63820;65.654;21.944;2022-10-13T08:59:33;100549.88;;;7.98;100.00
12676;BME280;63820;65.654;21.944;2022-10-13T09:02:29;100541.31;;;7.96;100.00
12676;BME280;63820;65.654;21.944;2022-10-13T09:05:36;100542.03;;;8.01;100.00
12676;BME280;63820;65.654;21.944;2022-10-13T09:08:25;100538.63;;;7.99;100.00
12676;BME280;63820;65.654;21.944;2022-10-13T09:11:13;100538.91;;;7.90;100.00
12676;BME280;63820;65.654;21.944;2022-10-13T09:13:59;100535.28;;;7.95;100.00
12676;BME280;63820;65.654;21.944;2022-10-13T09:16:44;100535.34;;;7.94;100.00
12676;BME280;63820;65.654;21.944;2022-10-13T09:19:31;100529.50;;;7.87;100.00
12676;BME280;63820;65.654;21.944;2022-10-13T09:22:30;100540.75;;;7.86;100.00
12676;BME280;63820;65.654;21.944;2022-10-13T09:25:16;100542.78;;;7.76;100.00
12676;BME280;63820;65.654;21.944;2022-10-13T09:28:09;100536.00;;;7.72;100.00
12676;BME280;63820;65.654;21.944;2022-10-13T09:31:06;100544.56;;;7.74;100.00
12676;BME280;63820;65.654;21.944;2022-10-13T09:33:59;100539.38;;;7.74;100.00
12676;BME280;63820;65.654;21.944;2022-10-13T09:37:04;100545.97;;;7.84;100.00
12676;BME280;63820;65.654;21.944;2022-10-13T09:40:19;100556.06;;;7.94;100.00
12676;BME280;63820;65.654;21.944;2022-10-13T09:43:16;100547.28;;;7.98;100.00
12676;BME280;63820;65.654;21.944;2022-10-13T09:52:23;100545.72;;;8.20;100.00
12676;BME280;63820;65.654;21.944;2022-10-13T09:58:20;100532.25;;;8.35;100.00
12676;BME280;63820;65.654;21.944;2022-10-13T10:01:15;100529.16;;;8.50;100.00
12676;BME280;63820;65.654;21.944;2022-10-13T10:04:07;100536.88;;;8.52;100.00
12676;BME280;63820;65.654;21.944;2022-10-13T10:06:54;100536.34;;;8.42;100.00
12676;BME280;63820;65.654;21.944;2022-10-13T10:09:43;100537.41;;;8.37;100.00
12676;BME280;63820;65.654;21.944;2022-10-13T10:12:30;100534.91;;;8.34;100.00
12676;BME280;63820;65.654;21.944;2022-10-13T10:15:25;100545.28;;;8.34;100.00
12676;BME280;63820;65.654;21.944;2022-10-13T10:18:20;100545.16;;;8.37;100.00
12676;BME280;63820;65.654;21.944;2022-10-13T10:27:25;100522.94;;;9.04;100.00
12676;BME280;63820;65.654;21.944;2022-10-13T10:30:15;100522.19;;;9.47;100.00
12676;BME280;63820;65.654;21.944;2022-10-13T10:36:03;100523.91;;;9.92;100.00
12676;BME280;63820;65.654;21.944;2022-10-13T10:45:37;100513.16;;;11.78;92.65
12676;BME280;63820;65.654;21.944;2022-10-13T10:48:24;100507.47;;;15.19;66.95
12676;BME280;63820;65.654;21.944;2022-10-13T10:51:10;100519.75;;;18.38;52.45
12676;BME280;63820;65.654;21.944;2022-10-13T10:57:12;100523.00;;;19.32;45.93
12676;BME280;63820;65.654;21.944;2022-10-13T11:09:00;100503.81;;;19.08;42.26
12676;BME280;63820;65.654;21.944;2022-10-13T11:11:44;100503.44;;;19.23;42.30
12676;BME280;63820;65.654;21.944;2022-10-13T11:14:29;100510.22;;;17.89;44.46
12676;BME280;63820;65.654;21.944;2022-10-13T11:17:18;100506.00;;;16.50;47.86
12676;BME280;63820;65.654;21.944;2022-10-13T11:25:47;100515.59;;;15.43;52.62
12676;BME280;63820;65.654;21.944;2022-10-13T11:31:26;100516.88;;;17.45;47.34
12676;BME280;63820;65.654;21.944;2022-10-13T11:34:30;100516.03;;;18.64;44.46
12676;BME280;63820;65.654;21.944;2022-10-13T11:37:16;100512.28;;;19.99;41.62
12676;BME280;63820;65.654;21.944;2022-10-13T11:55:05;100514.19;;;21.52;37.33
12676;BME280;63820;65.654;21.944;2022-10-13T11:58:14;100514.63;;;20.97;38.00
12676;BME280;63820;65.654;21.944;2022-10-13T12:01:10;100516.41;;;20.24;39.57
12676;BME280;63820;65.654;21.944;2022-10-13T12:03:55;100521.66;;;19.49;40.76
12676;BME280;63820;65.654;21.944;2022-10-13T12:06:40;100515.19;;;19.08;41.67
12676;BME280;63820;65.654;21.944;2022-10-13T12:09:25;100522.97;;;19.43;41.06
12676;BME280;63820;65.654;21.944;2022-10-13T12:12:13;100521.28;;;20.61;39.93
12676;BME280;63820;65.654;21.944;2022-10-13T12:14:58;100519.19;;;21.15;38.15
12676;BME280;63820;65.654;21.944;2022-10-13T12:17:43;100520.81;;;20.76;38.94
12676;BME280;63820;65.654;21.944;2022-10-13T12:20:30;100519.56;;;21.32;38.36
12676;BME280;63820;65.654;21.944;2022-10-13T12:23:16;100521.69;;;21.17;38.34
12676;BME280;63820;65.654;21.944;2022-10-13T12:26:00;100520.78;;;20.46;38.68
12676;BME280;63820;65.654;21.944;2022-10-13T12:28:49;100514.56;;;19.49;40.81
12676;BME280;63820;65.654;21.944;2022-10-13T12:31:40;100505.97;;;19.25;40.22
12676;BME280;63820;65.654;21.944;2022-10-13T12:34:31;100504.84;;;19.72;41.28
12676;BME280;63820;65.654;21.944;2022-10-13T12:40:13;100507.28;;;18.97;42.19
12676;BME280;63820;65.654;21.944;2022-10-13T12:42:58;100506.44;;;18.04;43.40
12676;BME280;63820;65.654;21.944;2022-10-13T12:45:42;100511.69;;;17.56;44.75
12676;BME280;63820;65.654;21.944;2022-10-13T12:48:34;100510.06;;;17.43;44.85
12676;BME280;63820;65.654;21.944;2022-10-13T12:51:24;100517.22;;;17.28;45.52
12676;BME280;63820;65.654;21.944;2022-10-13T12:54:17;100516.22;;;16.80;46.12
12676;BME280;63820;65.654;21.944;2022-10-13T12:57:29;100511.41;;;15.67;48.63
12676;BME280;63820;65.654;21.944;2022-10-13T13:03:04;100517.47;;;14.40;52.47
12676;BME280;63820;65.654;21.944;2022-10-13T13:05:49;100524.81;;;14.19;53.90
12676;BME280;63820;65.654;21.944;2022-10-13T13:09:19;100535.25;;;14.79;52.70
12676;BME280;63820;65.654;21.944;2022-10-13T13:12:26;100532.19;;;15.01;51.71
12676;BME280;63820;65.654;21.944;2022-10-13T13:21:14;100529.97;;;14.65;52.83
12676;BME280;63820;65.654;21.944;2022-10-13T13:23:58;100523.66;;;14.97;52.62
12676;BME280;63820;65.654;21.944;2022-10-13T13:26:44;100522.34;;;15.04;52.69
12676;BME280;63820;65.654;21.944;2022-10-13T13:29:28;100527.56;;;14.76;52.63
12676;BME280;63820;65.654;21.944;2022-10-13T13:32:14;100520.38;;;15.08;52.29
12676;BME280;63820;65.654;21.944;2022-10-13T13:34:59;100527.56;;;14.76;52.38
12676;BME280;63820;65.654;21.944;2022-10-13T13:37:46;100520.59;;;14.17;53.85
12676;BME280;63820;65.654;21.944;2022-10-13T13:40:33;100515.06;;;13.60;55.24
12676;BME280;63820;65.654;21.944;2022-10-13T13:43:17;100526.97;;;13.01;57.62
12676;BME280;63820;65.654;21.944;2022-10-13T13:46:02;100525.50;;;12.28;61.01
12676;BME280;63820;65.654;21.944;2022-10-13T13:48:47;100528.16;;;11.54;68.16
12676;BME280;63820;65.654;21.944;2022-10-13T13:51:31;100526.41;;;10.78;79.02
12676;BME280;63820;65.654;21.944;2022-10-13T13:54:16;100529.34;;;10.30;89.68
12676;BME280;63820;65.654;21.944;2022-10-13T13:57:00;100529.09;;;9.92;96.14
12676;BME280;63820;65.654;21.944;2022-10-13T13:59:44;100526.22;;;9.55;100.00
12676;BME280;63820;65.654;21.944;2022-10-13T14:02:28;100522.84;;;9.07;100.00
12676;BME280;63820;65.654;21.944;2022-10-13T14:05:12;100517.25;;;8.70;100.00
12676;BME280;63820;65.654;21.944;2022-10-13T14:07:57;100527.09;;;8.85;100.00
12676;BME280;63820;65.654;21.944;2022-10-13T14:10:41;100530.47;;;8.87;100.00
12676;BME280;63820;65.654;21.944;2022-10-13T14:13:25;100529.19;;;8.99;100.00
12676;BME280;63820;65.654;21.944;2022-10-13T14:16:14;100524.41;;;9.11;100.00
12676;BME280;63820;65.654;21.944;2022-10-13T14:18:59;100527.13;;;9.08;100.00
12676;BME280;63820;65.654;21.944;2022-10-13T14:21:43;100528.97;;;9.05;100.00
12676;BME280;63820;65.654;21.944;2022-10-13T14:24:29;100532.81;;;8.95;100.00
12676;BME280;63820;65.654;21.944;2022-10-13T14:27:13;100531.84;;;8.97;100.00
12676;BME280;63820;65.654;21.944;2022-10-13T14:29:57;100531.69;;;8.77;100.00
12676;BME280;63820;65.654;21.944;2022-10-13T14:32:41;100532.84;;;8.43;100.00
12676;BME280;63820;65.654;21.944;2022-10-13T14:35:25;100529.56;;;8.12;100.00
12676;BME280;63820;65.654;21.944;2022-10-13T14:38:09;100531.75;;;7.98;100.00
12676;BME280;63820;65.654;21.944;2022-10-13T14:41:01;100535.63;;;7.84;100.00
12676;BME280;63820;65.654;21.944;2022-10-13T14:43:46;100524.03;;;7.68;100.00
12676;BME280;63820;65.654;21.944;2022-10-13T14:46:30;100527.19;;;7.50;100.00
12676;BME280;63820;65.654;21.944;2022-10-13T14:49:14;100530.59;;;7.22;100.00
12676;BME280;63820;65.654;21.944;2022-10-13T14:51:58;100532.38;;;7.20;100.00
12676;BME280;63820;65.654;21.944;2022-10-13T14:54:42;100532.38;;;7.20;100.00
12676;BME280;63820;65.654;21.944;2022-10-13T14:57:26;100532.84;;;7.04;100.00
12676;BME280;63820;65.654;21.944;2022-10-13T15:00:11;100529.53;;;6.99;100.00
12676;BME280;63820;65.654;21.944;2022-10-13T15:02:55;100537.41;;;6.96;100.00
12676;BME280;63820;65.654;21.944;2022-10-13T15:05:39;100537.53;;;6.91;100.00
12676;BME280;63820;65.654;21.944;2022-10-13T15:08:23;100546.00;;;6.64;100.00
12676;BME280;63820;65.654;21.944;2022-10-13T15:11:07;100543.31;;;6.68;100.00
12676;BME280;63820;65.654;21.944;2022-10-13T15:13:52;100536.44;;;6.67;100.00
12676;BME280;63820;65.654;21.944;2022-10-13T15:16:36;100536.63;;;6.60;100.00
12676;BME280;63820;65.654;21.944;2022-10-13T15:19:21;100543.66;;;6.54;100.00
12676;BME280;63820;65.654;21.944;2022-10-13T15:22:05;100542.69;;;6.59;100.00
12676;BME280;63820;65.654;21.944;2022-10-13T15:24:48;100546.31;;;6.51;100.00
12676;BME280;63820;65.654;21.944;2022-10-13T15:27:33;100543.47;;;6.28;100.00
12676;BME280;63820;65.654;21.944;2022-10-13T15:30:18;100553.41;;;6.43;100.00
12676;BME280;63820;65.654;21.944;2022-10-13T15:33:02;100547.91;;;6.23;100.00
12676;BME280;63820;65.654;21.944;2022-10-13T15:35:50;100546.00;;;5.96;100.00
12676;BME280;63820;65.654;21.944;2022-10-13T15:38:35;100547.63;;;6.00;100.00
12676;BME280;63820;65.654;21.944;2022-10-13T15:41:19;100543.44;;;5.94;100.00
12676;BME280;63820;65.654;21.944;2022-10-13T15:44:05;100541.22;;;5.77;100.00
12676;BME280;63820;65.654;21.944;2022-10-13T15:46:49;100547.47;;;5.67;100.00
12676;BME280;63820;65.654;21.944;2022-10-13T15:49:35;100538.84;;;5.68;100.00
12676;BME280;63820;65.654;21.944;2022-10-13T15:52:22;100549.38;;;5.57;100.00
12676;BME280;63820;65.654;21.944;2022-10-13T15:55:08;100541.41;;;5.68;100.00
12676;BME280;63820;65.654;21.944;2022-10-13T15:57:52;100550.94;;;5.65;100.00
12676;BME280;63820;65.654;21.944;2022-10-13T16:00:37;100545.84;;;5.62;100.00